createdAt,value
2018-09-12T00:03:56.781Z,87.30
2018-09-12T00:08:05.107Z,87.50
2018-09-12T00:12:13.294Z,87.40
2018-09-12T00:16:21.452Z,88.00
2018-09-12T00:20:29.612Z,89.40
2018-09-12T00:24:37.790Z,90.20
2018-09-12T00:28:45.977Z,90.20
2018-09-12T00:32:54.156Z,90.30
2018-09-12T00:41:10.229Z,90.10
2018-09-12T00:45:18.437Z,90.20
2018-09-12T00:49:26.617Z,90.20
2018-09-12T00:53:34.789Z,90.20
2018-09-12T00:57:42.959Z,90.30
2018-09-12T01:01:51.149Z,90.30
2018-09-12T01:05:59.320Z,90.30
2018-09-12T01:10:07.491Z,90.30
2018-09-12T01:14:15.649Z,90.40
2018-09-12T01:18:23.794Z,90.40
2018-09-12T01:22:31.961Z,90.50
2018-09-12T01:26:40.176Z,90.50
2018-09-12T01:30:48.303Z,90.60
2018-09-12T01:34:56.707Z,90.60
2018-09-12T01:39:06.364Z,90.70
2018-09-12T01:43:14.541Z,90.70
2018-09-12T01:47:22.676Z,90.80
2018-09-12T01:55:38.739Z,90.90
2018-09-12T01:59:46.875Z,91.00
2018-09-12T02:08:02.942Z,91.10
2018-09-12T02:12:11.088Z,91.10
2018-09-12T02:20:27.161Z,91.30
2018-09-12T02:24:35.324Z,91.40
2018-09-12T02:28:43.476Z,91.60
2018-09-12T02:32:51.617Z,91.70
2018-09-12T02:36:59.761Z,91.70
2018-09-12T02:41:07.928Z,91.80
2018-09-12T02:45:16.069Z,91.80
2018-09-12T02:49:24.224Z,91.70
2018-09-12T02:53:32.377Z,91.70
2018-09-12T02:57:40.551Z,91.80
2018-09-12T03:01:48.698Z,91.80
2018-09-12T03:05:56.840Z,91.90
2018-09-12T03:10:06.228Z,92.00
2018-09-12T03:14:15.011Z,92.00
2018-09-12T03:18:23.169Z,92.20
2018-09-12T03:22:31.320Z,92.20
2018-09-12T03:26:39.474Z,92.20
2018-09-12T03:30:47.623Z,92.30
2018-09-12T03:34:55.765Z,92.30
2018-09-12T03:43:13.302Z,92.30
2018-09-12T03:47:21.448Z,92.30
2018-09-12T03:51:29.579Z,92.40
2018-09-12T03:55:37.769Z,92.60
2018-09-12T03:59:45.915Z,92.70
2018-09-12T04:03:54.096Z,92.80
2018-09-12T04:08:02.229Z,92.80
2018-09-12T04:12:10.378Z,92.80
2018-09-12T04:16:19.463Z,92.90
2018-09-12T04:20:27.605Z,92.90
2018-09-12T04:24:35.748Z,92.90
2018-09-12T04:28:44.016Z,92.90
2018-09-12T04:32:52.168Z,93.00
2018-09-12T04:37:00.315Z,93.10
2018-09-12T04:41:08.481Z,93.30
2018-09-12T04:45:16.630Z,93.50
2018-09-12T04:49:24.769Z,93.30
2018-09-12T04:53:32.912Z,93.40
2018-09-12T04:57:41.100Z,93.40
2018-09-12T05:01:49.251Z,93.30
2018-09-12T05:05:57.405Z,93.30
2018-09-12T05:10:05.689Z,93.30
2018-09-12T05:14:13.804Z,93.40
2018-09-12T05:18:21.928Z,93.40
2018-09-12T05:22:30.118Z,93.60
2018-09-12T05:26:38.271Z,93.20
2018-09-12T05:30:46.448Z,93.10
2018-09-12T05:34:54.657Z,92.90
2018-09-12T05:39:03.108Z,92.70
2018-09-12T05:43:11.267Z,92.60
2018-09-12T05:47:19.408Z,92.40
2018-09-12T05:51:27.541Z,92.20
2018-09-12T05:55:35.692Z,91.90
2018-09-12T05:59:43.855Z,91.70
2018-09-12T06:03:52.008Z,91.50
2018-09-12T06:08:00.144Z,91.20
2018-09-12T06:12:08.292Z,90.90
2018-09-12T06:16:16.440Z,90.50
2018-09-12T06:20:24.597Z,90.20
2018-09-12T06:24:32.727Z,89.90
2018-09-12T06:28:40.872Z,90.00
2018-09-12T06:32:49.028Z,88.60
2018-09-12T06:45:19.801Z,86.50
2018-09-12T06:49:27.936Z,85.70
2018-09-12T06:53:36.090Z,84.90
2018-09-12T06:57:44.231Z,84.40
2018-09-12T07:01:52.376Z,83.50
2018-09-12T07:06:00.539Z,82.40
2018-09-12T07:10:08.685Z,81.10
2018-09-12T07:14:16.891Z,80.30
2018-09-12T07:18:24.973Z,79.50
2018-09-12T07:22:33.124Z,78.80
2018-09-12T07:26:41.253Z,77.20
2018-09-12T07:30:49.629Z,76.60
2018-09-12T07:34:57.812Z,75.50
2018-09-12T07:39:08.734Z,74.20
2018-09-12T07:43:16.867Z,74.00
2018-09-12T07:47:25.025Z,73.20
2018-09-12T07:51:33.196Z,70.90
2018-09-12T07:55:41.338Z,69.40
2018-09-12T07:59:49.605Z,68.30
2018-09-12T08:03:57.759Z,66.00
2018-09-12T08:08:06.189Z,64.40
2018-09-12T08:12:14.344Z,62.40
2018-09-12T08:16:22.463Z,61.30
2018-09-12T08:20:30.601Z,59.70
2018-09-12T08:24:38.894Z,58.90
2018-09-12T08:28:47.036Z,58.10
2018-09-12T08:32:55.167Z,58.00
2018-09-12T08:37:03.319Z,58.10
2018-09-12T08:41:11.440Z,57.50
2018-09-12T08:45:19.605Z,57.20
2018-09-12T08:49:27.761Z,56.60
2018-09-12T08:53:35.902Z,56.00
2018-09-12T08:57:44.064Z,55.80
2018-09-12T09:01:52.227Z,55.40
2018-09-12T09:06:00.349Z,54.70
2018-09-12T09:10:08.505Z,53.70
2018-09-12T09:14:16.681Z,53.50
2018-09-12T09:18:24.824Z,52.90
2018-09-12T09:22:32.964Z,52.00
2018-09-12T09:26:41.107Z,51.20
2018-09-12T09:30:49.333Z,51.10
2018-09-12T09:34:57.494Z,50.70
2018-09-12T09:39:09.654Z,50.00
2018-09-12T09:43:17.803Z,49.60
2018-09-12T09:47:25.960Z,49.70
2018-09-12T09:51:34.114Z,49.60
2018-09-12T09:55:42.252Z,49.30
2018-09-12T09:59:50.434Z,48.90
2018-09-12T10:04:03.877Z,47.90
2018-09-12T10:08:17.388Z,46.40
2018-09-12T10:12:25.569Z,46.90
2018-09-12T10:16:33.709Z,47.00
2018-09-12T10:20:41.865Z,46.70
2018-09-12T10:24:50.014Z,46.80
2018-09-12T10:28:58.179Z,45.70
2018-09-12T10:33:06.382Z,45.60
2018-09-12T10:37:15.943Z,44.00
2018-09-12T10:41:24.221Z,44.10
2018-09-12T10:45:32.351Z,43.90
2018-09-12T10:49:40.479Z,44.20
2018-09-12T10:53:48.609Z,43.60
2018-09-12T10:57:56.808Z,43.70
2018-09-12T11:02:04.972Z,44.20
2018-09-12T11:06:13.139Z,43.60
2018-09-12T11:10:21.282Z,43.10
2018-09-12T11:14:29.426Z,42.30
2018-09-12T11:18:37.586Z,42.80
2018-09-12T11:22:45.739Z,42.30
2018-09-12T11:26:53.881Z,41.80
2018-09-12T11:31:02.049Z,41.30
2018-09-12T11:35:10.188Z,41.50
2018-09-12T11:39:18.336Z,41.50
2018-09-12T11:43:26.476Z,42.30
2018-09-12T11:47:34.620Z,41.30
2018-09-12T11:51:42.778Z,41.30
2018-09-12T11:55:50.957Z,41.40
2018-09-12T11:59:59.417Z,41.10
2018-09-12T12:04:07.866Z,40.70
2018-09-12T12:08:15.999Z,40.60
2018-09-12T12:12:24.156Z,40.50
2018-09-12T12:16:32.334Z,41.20
2018-09-12T12:20:40.447Z,40.40
2018-09-12T12:24:48.597Z,39.60
2018-09-12T12:28:56.762Z,39.40
2018-09-12T12:33:04.913Z,39.90
2018-09-12T12:37:13.061Z,37.00
2018-09-12T12:41:21.287Z,36.70
2018-09-12T12:45:29.364Z,35.80
2018-09-12T12:49:38.093Z,36.20
2018-09-12T12:53:46.230Z,35.30
2018-09-12T12:57:54.408Z,34.10
2018-09-12T13:02:02.544Z,34.50
2018-09-12T13:06:10.723Z,35.40
2018-09-12T13:10:18.909Z,35.20
2018-09-12T13:14:27.093Z,35.30
2018-09-12T13:18:35.193Z,35.30
2018-09-12T13:22:43.336Z,34.80
2018-09-12T13:26:51.528Z,35.20
2018-09-12T13:30:59.672Z,35.00
2018-09-12T13:35:07.820Z,35.30
2018-09-12T13:39:17.044Z,34.70
2018-09-12T13:43:25.214Z,34.80
2018-09-12T13:47:33.360Z,35.30
2018-09-12T13:51:41.534Z,34.70
2018-09-12T13:55:49.659Z,34.00
2018-09-12T13:59:57.820Z,35.60
2018-09-12T14:08:13.879Z,36.10
2018-09-12T14:12:22.068Z,36.80
2018-09-12T14:16:30.223Z,37.00
2018-09-12T14:20:38.377Z,35.80
2018-09-12T14:24:46.600Z,36.10
2018-09-12T14:28:54.765Z,35.30
2018-09-12T14:33:02.896Z,35.60
2018-09-12T14:37:11.101Z,36.60
2018-09-12T14:41:19.274Z,36.30
2018-09-12T14:45:27.415Z,36.00
2018-09-12T14:49:35.584Z,36.80
2018-09-12T14:53:43.732Z,37.60
2018-09-12T14:57:51.888Z,38.70
2018-09-12T15:02:00.038Z,39.50
2018-09-12T15:06:08.203Z,40.50
2018-09-12T15:10:16.361Z,41.10
2018-09-12T15:14:24.497Z,41.00
2018-09-12T15:18:32.984Z,40.00
2018-09-12T15:22:41.392Z,40.20
2018-09-12T15:26:49.608Z,40.10
2018-09-12T15:30:57.824Z,40.00
2018-09-12T15:35:06.135Z,40.10
2018-09-12T15:39:14.308Z,40.10
2018-09-12T15:43:22.485Z,40.60
2018-09-12T15:47:30.633Z,41.60
2018-09-12T15:51:38.764Z,42.10
2018-09-12T15:55:46.921Z,42.40
2018-09-12T15:59:55.085Z,43.10
2018-09-12T16:04:03.224Z,43.40
2018-09-12T16:08:11.377Z,43.60
2018-09-12T16:12:19.508Z,43.50
2018-09-12T16:16:27.660Z,43.50
2018-09-12T16:20:35.839Z,43.20
2018-09-12T16:24:43.984Z,44.50
2018-09-12T16:28:52.212Z,46.60
2018-09-12T16:33:00.482Z,48.20
2018-09-12T16:37:08.524Z,49.70
2018-09-12T16:41:16.666Z,51.40
2018-09-12T16:45:24.821Z,53.40
2018-09-12T16:49:33.008Z,54.10
2018-09-12T16:53:41.156Z,55.00
2018-09-12T16:57:49.302Z,56.20
2018-09-12T17:01:57.660Z,57.20
2018-09-12T17:06:05.831Z,58.10
2018-09-12T17:10:13.972Z,58.70
2018-09-12T17:14:22.153Z,59.60
2018-09-12T17:18:30.308Z,60.50
2018-09-12T17:22:38.455Z,61.70
2018-09-12T17:26:46.621Z,62.80
2018-09-12T17:30:54.788Z,64.30
2018-09-12T17:35:02.973Z,65.10
2018-09-12T17:39:11.566Z,66.20
2018-09-12T17:43:19.753Z,67.90
2018-09-12T17:47:27.920Z,67.90
2018-09-12T17:51:36.051Z,68.90
2018-09-12T17:55:44.290Z,69.30
2018-09-12T17:59:52.367Z,69.40
2018-09-12T18:04:00.504Z,69.70
2018-09-12T18:08:08.669Z,70.50
2018-09-12T18:12:16.924Z,71.20
2018-09-12T18:16:25.053Z,72.20
2018-09-12T18:20:33.216Z,73.30
2018-09-12T18:24:41.377Z,73.70
2018-09-12T18:28:49.524Z,74.50
2018-09-12T18:32:57.717Z,75.40
2018-09-12T18:37:06.074Z,76.40
2018-09-12T18:41:14.216Z,77.10
2018-09-12T18:45:22.397Z,77.70
2018-09-12T18:49:31.016Z,78.60
2018-09-12T18:53:40.122Z,79.00
2018-09-12T18:57:48.272Z,79.40
2018-09-12T19:01:56.500Z,79.40
2018-09-12T19:06:04.719Z,80.00
2018-09-12T19:10:12.891Z,80.60
2018-09-12T19:14:21.073Z,80.50
2018-09-12T19:18:29.377Z,80.30
2018-09-12T19:22:37.534Z,80.00
2018-09-12T19:26:46.916Z,82.10
2018-09-12T19:30:55.064Z,82.60
2018-09-12T19:35:03.256Z,83.60
2018-09-12T19:39:11.436Z,84.10
2018-09-12T19:43:19.716Z,84.40
2018-09-12T19:47:27.869Z,86.00
2018-09-12T19:51:36.051Z,87.10
2018-09-12T19:55:44.208Z,87.40
2018-09-12T19:59:52.410Z,88.40
2018-09-12T20:04:00.625Z,88.90
2018-09-12T20:08:08.911Z,89.10
2018-09-12T20:12:17.249Z,89.10
2018-09-12T20:16:25.404Z,89.70
2018-09-12T20:20:33.649Z,89.80
2018-09-12T20:24:42.771Z,89.80
2018-09-12T20:28:51.438Z,89.70
2018-09-12T20:32:59.668Z,89.70
2018-09-12T20:37:07.812Z,89.50
2018-09-12T20:41:15.960Z,88.90
2018-09-12T20:45:24.127Z,88.50
2018-09-12T20:49:32.372Z,88.90
2018-09-12T20:53:40.534Z,88.70
2018-09-12T20:57:48.667Z,88.20
2018-09-12T21:01:56.827Z,87.60
2018-09-12T21:06:04.989Z,87.70
2018-09-12T21:10:13.140Z,87.30
2018-09-12T21:14:21.292Z,87.20
2018-09-12T21:22:37.364Z,88.60
2018-09-12T21:26:45.500Z,89.60
2018-09-12T21:30:53.635Z,89.90
2018-09-12T21:35:01.787Z,90.30
2018-09-12T21:39:10.368Z,89.40
2018-09-12T21:43:18.545Z,90.00
2018-09-12T21:47:26.811Z,89.60
2018-09-12T21:51:34.971Z,89.40
2018-09-12T21:55:43.124Z,89.70
2018-09-12T21:59:51.273Z,89.60
2018-09-12T22:03:59.407Z,89.50
2018-09-12T22:08:07.602Z,89.30
2018-09-12T22:12:15.745Z,89.50
2018-09-12T22:16:23.900Z,89.40
2018-09-12T22:20:32.050Z,89.10
2018-09-12T22:24:40.191Z,88.70
2018-09-12T22:28:48.344Z,88.40
2018-09-12T22:32:56.632Z,88.20
2018-09-12T22:37:04.795Z,89.00
2018-09-12T22:41:13.248Z,88.00
2018-09-12T22:45:21.396Z,87.90
2018-09-12T22:49:29.588Z,87.80
2018-09-12T22:53:37.741Z,87.80
2018-09-12T22:57:45.904Z,87.70
2018-09-12T23:01:54.057Z,88.10
2018-09-12T23:06:02.214Z,88.80
2018-09-12T23:10:10.344Z,89.10
2018-09-12T23:14:18.501Z,89.40
2018-09-12T23:18:26.659Z,89.90
2018-09-12T23:22:34.940Z,90.10
2018-09-12T23:26:43.080Z,90.00
2018-09-12T23:30:51.236Z,90.00
2018-09-12T23:34:59.395Z,89.30
2018-09-12T23:39:09.409Z,89.80
2018-09-12T23:43:17.585Z,89.80
2018-09-12T23:47:25.744Z,89.70
2018-09-12T23:51:33.912Z,89.70
2018-09-12T23:55:42.052Z,90.00
2018-09-12T23:59:50.222Z,90.00
